Yunta, Australia
Current Conditions -  °F | °C
As of 10:00 AM on Thursday 29 Jan 2015 (Local Time) from YBHI Reporting Station
Clear Clear  
Wind Chill: 79°   Ceiling: Unl
Heat Index: 79°   Visibility: 6mi
Dew Point: 46°   Wind: 12mph
Humidity: 32%   Direction: 140°SE
Pressure: 29.97"   Gusts: NA
Location:  32.58°S, 139.56°E
Report Text: YBHI 290000Z AUTO 14010KT 9999 // NCD 26/08 Q1015
Loading
Personal Weather Stations






























Interactive Weather Map New forecast layout! Learn more

10-Day Weather Forecast

Advertisements
Track Severe Weather on mobile